sensor_id;sensor_type;location;lat;lon;timestamp;P1;durP1;ratioP1;P2;durP2;ratioP2
20713;SDS011;10518;50.742;4.226;2023-12-20T00:01:48;3.63;;;1.40;;
20713;SDS011;10518;50.742;4.226;2023-12-20T00:04:14;5.10;;;1.40;;
20713;SDS011;10518;50.742;4.226;2023-12-20T00:06:40;3.37;;;1.53;;
20713;SDS011;10518;50.742;4.226;2023-12-20T00:09:05;5.67;;;1.70;;
20713;SDS011;10518;50.742;4.226;2023-12-20T00:11:31;5.80;;;1.90;;
20713;SDS011;10518;50.742;4.226;2023-12-20T00:13:56;6.43;;;1.80;;
20713;SDS011;10518;50.742;4.226;2023-12-20T00:16:22;8.73;;;2.03;;
20713;SDS011;10518;50.742;4.226;2023-12-20T00:18:47;9.97;;;2.00;;
20713;SDS011;10518;50.742;4.226;2023-12-20T00:21:13;3.07;;;1.73;;
20713;SDS011;10518;50.742;4.226;2023-12-20T00:23:39;6.80;;;1.60;;
20713;SDS011;10518;50.742;4.226;2023-12-20T00:26:04;5.77;;;2.03;;
20713;SDS011;10518;50.742;4.226;2023-12-20T00:28:30;5.00;;;1.60;;
20713;SDS011;10518;50.742;4.226;2023-12-20T00:30:55;5.83;;;1.77;;
20713;SDS011;10518;50.742;4.226;2023-12-20T00:33:21;9.43;;;1.93;;
20713;SDS011;10518;50.742;4.226;2023-12-20T00:35:46;11.00;;;2.27;;
20713;SDS011;10518;50.742;4.226;2023-12-20T00:38:12;6.87;;;1.93;;
20713;SDS011;10518;50.742;4.226;2023-12-20T00:40:37;8.60;;;1.70;;
20713;SDS011;10518;50.742;4.226;2023-12-20T00:43:03;7.60;;;1.80;;
20713;SDS011;10518;50.742;4.226;2023-12-20T00:45:29;6.40;;;1.77;;
20713;SDS011;10518;50.742;4.226;2023-12-20T00:47:54;10.47;;;1.90;;
20713;SDS011;10518;50.742;4.226;2023-12-20T00:50:20;6.67;;;1.97;;
20713;SDS011;10518;50.742;4.226;2023-12-20T00:52:46;7.20;;;1.97;;
20713;SDS011;10518;50.742;4.226;2023-12-20T00:55:12;7.10;;;2.23;;
20713;SDS011;10518;50.742;4.226;2023-12-20T00:57:38;8.33;;;2.20;;
20713;SDS011;10518;50.742;4.226;2023-12-20T01:00:04;12.33;;;2.30;;
20713;SDS011;10518;50.742;4.226;2023-12-20T01:02:31;8.93;;;2.17;;
20713;SDS011;10518;50.742;4.226;2023-12-20T01:04:56;10.87;;;2.50;;
20713;SDS011;10518;50.742;4.226;2023-12-20T01:07:22;9.40;;;1.80;;
20713;SDS011;10518;50.742;4.226;2023-12-20T01:09:47;6.17;;;2.10;;
20713;SDS011;10518;50.742;4.226;2023-12-20T01:12:13;4.80;;;2.30;;
20713;SDS011;10518;50.742;4.226;2023-12-20T01:14:38;9.23;;;2.43;;
20713;SDS011;10518;50.742;4.226;2023-12-20T01:17:04;14.17;;;2.60;;
20713;SDS011;10518;50.742;4.226;2023-12-20T01:19:30;10.97;;;2.50;;
20713;SDS011;10518;50.742;4.226;2023-12-20T01:21:55;10.53;;;2.47;;
20713;SDS011;10518;50.742;4.226;2023-12-20T01:24:21;5.70;;;2.20;;
20713;SDS011;10518;50.742;4.226;2023-12-20T01:26:47;9.70;;;2.30;;
20713;SDS011;10518;50.742;4.226;2023-12-20T01:29:12;6.90;;;1.93;;
20713;SDS011;10518;50.742;4.226;2023-12-20T01:31:39;5.10;;;2.27;;
20713;SDS011;10518;50.742;4.226;2023-12-20T01:34:05;17.33;;;2.30;;
20713;SDS011;10518;50.742;4.226;2023-12-20T01:36:31;11.57;;;2.23;;
20713;SDS011;10518;50.742;4.226;2023-12-20T01:38:57;8.20;;;2.50;;
20713;SDS011;10518;50.742;4.226;2023-12-20T01:41:22;10.67;;;2.37;;
20713;SDS011;10518;50.742;4.226;2023-12-20T01:43:48;11.57;;;2.17;;
20713;SDS011;10518;50.742;4.226;2023-12-20T01:46:14;9.87;;;2.20;;
20713;SDS011;10518;50.742;4.226;2023-12-20T01:48:40;6.87;;;2.20;;
20713;SDS011;10518;50.742;4.226;2023-12-20T01:51:06;11.77;;;2.67;;
20713;SDS011;10518;50.742;4.226;2023-12-20T01:53:32;13.80;;;2.47;;
20713;SDS011;10518;50.742;4.226;2023-12-20T01:55:58;10.70;;;2.63;;
20713;SDS011;10518;50.742;4.226;2023-12-20T01:58:24;9.93;;;2.70;;
20713;SDS011;10518;50.742;4.226;2023-12-20T02:00:50;9.87;;;2.87;;
20713;SDS011;10518;50.742;4.226;2023-12-20T02:03:16;12.20;;;2.83;;
20713;SDS011;10518;50.742;4.226;2023-12-20T02:05:43;17.00;;;2.77;;
20713;SDS011;10518;50.742;4.226;2023-12-20T02:08:10;13.10;;;2.73;;
20713;SDS011;10518;50.742;4.226;2023-12-20T02:10:36;9.93;;;3.27;;
20713;SDS011;10518;50.742;4.226;2023-12-20T02:13:02;10.97;;;2.93;;
20713;SDS011;10518;50.742;4.226;2023-12-20T02:15:29;15.17;;;3.13;;
20713;SDS011;10518;50.742;4.226;2023-12-20T02:17:55;17.60;;;4.53;;
20713;SDS011;10518;50.742;4.226;2023-12-20T02:20:20;19.73;;;3.67;;
20713;SDS011;10518;50.742;4.226;2023-12-20T02:22:46;15.33;;;3.80;;
20713;SDS011;10518;50.742;4.226;2023-12-20T02:25:11;14.43;;;3.67;;
20713;SDS011;10518;50.742;4.226;2023-12-20T02:27:37;21.27;;;3.70;;
20713;SDS011;10518;50.742;4.226;2023-12-20T02:30:04;12.67;;;3.80;;
20713;SDS011;10518;50.742;4.226;2023-12-20T02:32:30;11.30;;;3.57;;
20713;SDS011;10518;50.742;4.226;2023-12-20T02:34:57;11.63;;;3.43;;
20713;SDS011;10518;50.742;4.226;2023-12-20T02:37:23;11.33;;;3.50;;
20713;SDS011;10518;50.742;4.226;2023-12-20T02:39:49;11.77;;;3.93;;
20713;SDS011;10518;50.742;4.226;2023-12-20T02:42:15;13.63;;;3.97;;
20713;SDS011;10518;50.742;4.226;2023-12-20T02:44:40;13.23;;;4.20;;
20713;SDS011;10518;50.742;4.226;2023-12-20T02:47:06;11.30;;;3.80;;
20713;SDS011;10518;50.742;4.226;2023-12-20T02:49:31;11.07;;;4.07;;
20713;SDS011;10518;50.742;4.226;2023-12-20T02:51:57;16.40;;;3.70;;
20713;SDS011;10518;50.742;4.226;2023-12-20T02:54:22;10.13;;;3.17;;
20713;SDS011;10518;50.742;4.226;2023-12-20T02:56:48;13.57;;;3.77;;
20713;SDS011;10518;50.742;4.226;2023-12-20T02:59:13;12.67;;;3.73;;
20713;SDS011;10518;50.742;4.226;2023-12-20T03:01:43;15.33;;;3.80;;
20713;SDS011;10518;50.742;4.226;2023-12-20T03:04:10;16.97;;;3.70;;
20713;SDS011;10518;50.742;4.226;2023-12-20T03:06:36;12.43;;;3.30;;
20713;SDS011;10518;50.742;4.226;2023-12-20T03:09:02;7.83;;;3.57;;
20713;SDS011;10518;50.742;4.226;2023-12-20T03:11:28;14.13;;;3.77;;
20713;SDS011;10518;50.742;4.226;2023-12-20T03:13:54;10.90;;;2.93;;
20713;SDS011;10518;50.742;4.226;2023-12-20T03:16:20;7.83;;;2.73;;
20713;SDS011;10518;50.742;4.226;2023-12-20T03:18:46;9.70;;;2.80;;
20713;SDS011;10518;50.742;4.226;2023-12-20T03:21:11;14.20;;;2.67;;
20713;SDS011;10518;50.742;4.226;2023-12-20T03:23:37;10.13;;;3.63;;
20713;SDS011;10518;50.742;4.226;2023-12-20T03:26:02;13.20;;;2.83;;
20713;SDS011;10518;50.742;4.226;2023-12-20T03:28:29;10.43;;;2.90;;
20713;SDS011;10518;50.742;4.226;2023-12-20T03:30:54;9.03;;;2.90;;
20713;SDS011;10518;50.742;4.226;2023-12-20T03:33:20;11.00;;;2.60;;
20713;SDS011;10518;50.742;4.226;2023-12-20T03:35:46;8.23;;;2.67;;
20713;SDS011;10518;50.742;4.226;2023-12-20T03:38:11;12.57;;;2.90;;
20713;SDS011;10518;50.742;4.226;2023-12-20T03:40:37;8.53;;;2.83;;
20713;SDS011;10518;50.742;4.226;2023-12-20T03:43:03;8.97;;;2.90;;
20713;SDS011;10518;50.742;4.226;2023-12-20T03:45:28;9.03;;;2.60;;
20713;SDS011;10518;50.742;4.226;2023-12-20T03:47:54;13.83;;;3.03;;
20713;SDS011;10518;50.742;4.226;2023-12-20T03:50:24;14.50;;;3.03;;
20713;SDS011;10518;50.742;4.226;2023-12-20T03:52:50;13.23;;;3.00;;
20713;SDS011;10518;50.742;4.226;2023-12-20T03:55:16;15.80;;;2.83;;
20713;SDS011;10518;50.742;4.226;2023-12-20T03:57:41;8.10;;;3.20;;
20713;SDS011;10518;50.742;4.226;2023-12-20T04:00:07;16.13;;;2.93;;
20713;SDS011;10518;50.742;4.226;2023-12-20T04:02:35;13.23;;;2.70;;
20713;SDS011;10518;50.742;4.226;2023-12-20T04:05:01;13.57;;;2.50;;
20713;SDS011;10518;50.742;4.226;2023-12-20T04:07:27;6.90;;;3.10;;
20713;SDS011;10518;50.742;4.226;2023-12-20T04:09:53;8.67;;;2.73;;
20713;SDS011;10518;50.742;4.226;2023-12-20T04:12:18;11.37;;;3.03;;
20713;SDS011;10518;50.742;4.226;2023-12-20T04:14:44;11.50;;;2.63;;
20713;SDS011;10518;50.742;4.226;2023-12-20T04:17:09;8.93;;;2.77;;
20713;SDS011;10518;50.742;4.226;2023-12-20T04:19:35;9.20;;;3.03;;
20713;SDS011;10518;50.742;4.226;2023-12-20T04:22:00;15.20;;;2.83;;
20713;SDS011;10518;50.742;4.226;2023-12-20T04:24:26;11.13;;;3.20;;
20713;SDS011;10518;50.742;4.226;2023-12-20T04:26:51;11.67;;;2.97;;
20713;SDS011;10518;50.742;4.226;2023-12-20T04:29:17;9.97;;;2.83;;
20713;SDS011;10518;50.742;4.226;2023-12-20T04:31:43;16.53;;;3.50;;
20713;SDS011;10518;50.742;4.226;2023-12-20T04:34:08;12.07;;;3.17;;
20713;SDS011;10518;50.742;4.226;2023-12-20T04:36:34;11.10;;;3.43;;
20713;SDS011;10518;50.742;4.226;2023-12-20T04:38:59;13.33;;;3.30;;
20713;SDS011;10518;50.742;4.226;2023-12-20T04:41:25;12.27;;;2.83;;
20713;SDS011;10518;50.742;4.226;2023-12-20T04:43:52;8.73;;;3.13;;
20713;SDS011;10518;50.742;4.226;2023-12-20T04:46:18;14.23;;;3.30;;
20713;SDS011;10518;50.742;4.226;2023-12-20T04:48:43;17.77;;;3.10;;
20713;SDS011;10518;50.742;4.226;2023-12-20T04:51:09;12.50;;;2.70;;
20713;SDS011;10518;50.742;4.226;2023-12-20T04:53:34;13.70;;;3.23;;
20713;SDS011;10518;50.742;4.226;2023-12-20T04:56:00;11.33;;;3.10;;
20713;SDS011;10518;50.742;4.226;2023-12-20T04:58:26;10.20;;;3.17;;
20713;SDS011;10518;50.742;4.226;2023-12-20T05:00:51;14.50;;;3.03;;
20713;SDS011;10518;50.742;4.226;2023-12-20T05:03:17;6.83;;;2.27;;
20713;SDS011;10518;50.742;4.226;2023-12-20T05:05:42;10.60;;;2.83;;
20713;SDS011;10518;50.742;4.226;2023-12-20T05:08:08;11.70;;;2.70;;
20713;SDS011;10518;50.742;4.226;2023-12-20T05:10:34;11.60;;;2.80;;
20713;SDS011;10518;50.742;4.226;2023-12-20T05:13:00;13.50;;;3.10;;
20713;SDS011;10518;50.742;4.226;2023-12-20T05:15:25;7.30;;;2.70;;
20713;SDS011;10518;50.742;4.226;2023-12-20T05:17:51;8.00;;;3.03;;
20713;SDS011;10518;50.742;4.226;2023-12-20T05:20:17;13.80;;;2.97;;
20713;SDS011;10518;50.742;4.226;2023-12-20T05:22:42;12.17;;;2.83;;
20713;SDS011;10518;50.742;4.226;2023-12-20T05:25:08;12.93;;;2.30;;
20713;SDS011;10518;50.742;4.226;2023-12-20T05:27:33;6.57;;;2.33;;
20713;SDS011;10518;50.742;4.226;2023-12-20T05:29:59;10.27;;;2.70;;
20713;SDS011;10518;50.742;4.226;2023-12-20T05:32:25;10.10;;;2.30;;
20713;SDS011;10518;50.742;4.226;2023-12-20T05:34:50;9.60;;;2.37;;
20713;SDS011;10518;50.742;4.226;2023-12-20T05:37:16;11.63;;;2.57;;
20713;SDS011;10518;50.742;4.226;2023-12-20T05:39:41;7.90;;;2.60;;
20713;SDS011;10518;50.742;4.226;2023-12-20T05:42:07;12.07;;;2.73;;
20713;SDS011;10518;50.742;4.226;2023-12-20T05:44:32;12.43;;;2.30;;
20713;SDS011;10518;50.742;4.226;2023-12-20T05:46:58;7.23;;;2.53;;
20713;SDS011;10518;50.742;4.226;2023-12-20T05:49:23;9.93;;;2.47;;
20713;SDS011;10518;50.742;4.226;2023-12-20T05:51:49;7.33;;;2.93;;
20713;SDS011;10518;50.742;4.226;2023-12-20T05:54:16;13.37;;;2.77;;
20713;SDS011;10518;50.742;4.226;2023-12-20T05:56:41;9.40;;;2.80;;
20713;SDS011;10518;50.742;4.226;2023-12-20T05:59:07;7.37;;;2.47;;
20713;SDS011;10518;50.742;4.226;2023-12-20T06:01:33;15.67;;;2.40;;
20713;SDS011;10518;50.742;4.226;2023-12-20T06:03:58;7.93;;;2.70;;
20713;SDS011;10518;50.742;4.226;2023-12-20T06:06:24;11.10;;;2.27;;
20713;SDS011;10518;50.742;4.226;2023-12-20T06:08:49;11.70;;;2.60;;
20713;SDS011;10518;50.742;4.226;2023-12-20T06:11:15;6.90;;;2.57;;
20713;SDS011;10518;50.742;4.226;2023-12-20T06:13:40;8.07;;;2.47;;
20713;SDS011;10518;50.742;4.226;2023-12-20T06:16:06;9.20;;;2.80;;
20713;SDS011;10518;50.742;4.226;2023-12-20T06:18:32;10.03;;;2.63;;
20713;SDS011;10518;50.742;4.226;2023-12-20T06:20:58;11.47;;;2.40;;
20713;SDS011;10518;50.742;4.226;2023-12-20T06:23:23;12.97;;;2.70;;
20713;SDS011;10518;50.742;4.226;2023-12-20T06:25:49;21.87;;;2.40;;
20713;SDS011;10518;50.742;4.226;2023-12-20T06:28:14;9.10;;;2.40;;
20713;SDS011;10518;50.742;4.226;2023-12-20T06:30:40;10.73;;;2.83;;
20713;SDS011;10518;50.742;4.226;2023-12-20T06:33:06;8.00;;;2.30;;
20713;SDS011;10518;50.742;4.226;2023-12-20T06:35:31;13.73;;;2.77;;
20713;SDS011;10518;50.742;4.226;2023-12-20T06:37:57;17.27;;;2.80;;
20713;SDS011;10518;50.742;4.226;2023-12-20T06:40:23;10.87;;;2.50;;
20713;SDS011;10518;50.742;4.226;2023-12-20T06:42:48;10.83;;;2.27;;
20713;SDS011;10518;50.742;4.226;2023-12-20T06:45:14;9.70;;;2.30;;
20713;SDS011;10518;50.742;4.226;2023-12-20T06:47:40;9.33;;;2.10;;
20713;SDS011;10518;50.742;4.226;2023-12-20T06:50:05;13.73;;;2.40;;
20713;SDS011;10518;50.742;4.226;2023-12-20T06:52:33;13.53;;;2.83;;
20713;SDS011;10518;50.742;4.226;2023-12-20T06:55:00;7.30;;;1.73;;
20713;SDS011;10518;50.742;4.226;2023-12-20T06:57:25;9.03;;;2.27;;
20713;SDS011;10518;50.742;4.226;2023-12-20T06:59:51;11.83;;;2.20;;
20713;SDS011;10518;50.742;4.226;2023-12-20T07:02:17;10.13;;;2.30;;
20713;SDS011;10518;50.742;4.226;2023-12-20T07:04:42;13.93;;;2.20;;
20713;SDS011;10518;50.742;4.226;2023-12-20T07:07:08;12.20;;;2.33;;
20713;SDS011;10518;50.742;4.226;2023-12-20T07:09:34;15.10;;;2.40;;
20713;SDS011;10518;50.742;4.226;2023-12-20T07:11:59;10.57;;;2.27;;
20713;SDS011;10518;50.742;4.226;2023-12-20T07:14:25;9.17;;;1.77;;
20713;SDS011;10518;50.742;4.226;2023-12-20T07:16:51;12.80;;;2.57;;
20713;SDS011;10518;50.742;4.226;2023-12-20T07:19:17;4.90;;;1.80;;
20713;SDS011;10518;50.742;4.226;2023-12-20T07:21:42;4.30;;;2.13;;
20713;SDS011;10518;50.742;4.226;2023-12-20T07:24:08;9.97;;;2.33;;
20713;SDS011;10518;50.742;4.226;2023-12-20T07:26:34;6.67;;;2.03;;
20713;SDS011;10518;50.742;4.226;2023-12-20T07:29:00;12.30;;;2.70;;
20713;SDS011;10518;50.742;4.226;2023-12-20T07:31:26;12.70;;;2.50;;
20713;SDS011;10518;50.742;4.226;2023-12-20T07:33:51;6.83;;;1.90;;
20713;SDS011;10518;50.742;4.226;2023-12-20T07:36:17;14.17;;;2.47;;
20713;SDS011;10518;50.742;4.226;2023-12-20T07:38:44;7.20;;;2.07;;
20713;SDS011;10518;50.742;4.226;2023-12-20T07:41:10;4.83;;;2.03;;
20713;SDS011;10518;50.742;4.226;2023-12-20T07:43:35;15.13;;;2.47;;
20713;SDS011;10518;50.742;4.226;2023-12-20T07:46:07;8.30;;;1.97;;
20713;SDS011;10518;50.742;4.226;2023-12-20T07:48:37;6.97;;;2.30;;
20713;SDS011;10518;50.742;4.226;2023-12-20T07:51:03;14.83;;;2.33;;
20713;SDS011;10518;50.742;4.226;2023-12-20T07:53:30;11.87;;;2.33;;
20713;SDS011;10518;50.742;4.226;2023-12-20T07:55:56;7.97;;;1.83;;
20713;SDS011;10518;50.742;4.226;2023-12-20T07:58:22;10.27;;;2.13;;
20713;SDS011;10518;50.742;4.226;2023-12-20T08:00:47;9.73;;;2.47;;
20713;SDS011;10518;50.742;4.226;2023-12-20T08:03:13;13.90;;;2.20;;
20713;SDS011;10518;50.742;4.226;2023-12-20T08:05:39;10.90;;;2.40;;
20713;SDS011;10518;50.742;4.226;2023-12-20T08:08:05;8.93;;;2.30;;
20713;SDS011;10518;50.742;4.226;2023-12-20T08:10:31;9.80;;;2.50;;
20713;SDS011;10518;50.742;4.226;2023-12-20T08:12:57;10.50;;;2.30;;
20713;SDS011;10518;50.742;4.226;2023-12-20T08:15:23;13.90;;;2.07;;
20713;SDS011;10518;50.742;4.226;2023-12-20T08:17:48;8.73;;;3.10;;
20713;SDS011;10518;50.742;4.226;2023-12-20T08:20:16;10.77;;;1.90;;
20713;SDS011;10518;50.742;4.226;2023-12-20T08:22:42;6.80;;;2.07;;
20713;SDS011;10518;50.742;4.226;2023-12-20T08:25:07;10.83;;;2.50;;
20713;SDS011;10518;50.742;4.226;2023-12-20T08:27:34;5.30;;;2.10;;
20713;SDS011;10518;50.742;4.226;2023-12-20T08:30:04;8.40;;;2.27;;
20713;SDS011;10518;50.742;4.226;2023-12-20T08:32:30;13.10;;;2.43;;
20713;SDS011;10518;50.742;4.226;2023-12-20T08:34:57;12.00;;;2.47;;
20713;SDS011;10518;50.742;4.226;2023-12-20T08:37:22;13.40;;;2.63;;
20713;SDS011;10518;50.742;4.226;2023-12-20T08:39:48;10.03;;;2.20;;
20713;SDS011;10518;50.742;4.226;2023-12-20T08:42:13;7.70;;;2.33;;
20713;SDS011;10518;50.742;4.226;2023-12-20T08:44:39;4.50;;;1.90;;
20713;SDS011;10518;50.742;4.226;2023-12-20T08:47:05;9.23;;;2.43;;
20713;SDS011;10518;50.742;4.226;2023-12-20T08:49:30;11.90;;;2.47;;
20713;SDS011;10518;50.742;4.226;2023-12-20T08:51:56;9.93;;;2.23;;
20713;SDS011;10518;50.742;4.226;2023-12-20T08:54:21;10.67;;;2.40;;
20713;SDS011;10518;50.742;4.226;2023-12-20T08:56:47;12.93;;;2.50;;
20713;SDS011;10518;50.742;4.226;2023-12-20T08:59:13;12.53;;;2.27;;
20713;SDS011;10518;50.742;4.226;2023-12-20T09:01:39;9.60;;;2.10;;
20713;SDS011;10518;50.742;4.226;2023-12-20T09:04:05;9.43;;;2.70;;
20713;SDS011;10518;50.742;4.226;2023-12-20T09:06:31;11.73;;;2.30;;
20713;SDS011;10518;50.742;4.226;2023-12-20T09:08:57;19.50;;;2.73;;
20713;SDS011;10518;50.742;4.226;2023-12-20T09:11:22;14.07;;;2.57;;
20713;SDS011;10518;50.742;4.226;2023-12-20T09:13:48;9.17;;;2.60;;
20713;SDS011;10518;50.742;4.226;2023-12-20T09:16:13;7.00;;;2.10;;
20713;SDS011;10518;50.742;4.226;2023-12-20T09:18:40;17.23;;;2.70;;
20713;SDS011;10518;50.742;4.226;2023-12-20T09:21:06;10.77;;;2.43;;
20713;SDS011;10518;50.742;4.226;2023-12-20T09:23:32;10.47;;;2.37;;
20713;SDS011;10518;50.742;4.226;2023-12-20T09:26:00;11.07;;;2.40;;
20713;SDS011;10518;50.742;4.226;2023-12-20T09:28:26;8.50;;;2.20;;
20713;SDS011;10518;50.742;4.226;2023-12-20T09:30:51;9.97;;;2.10;;
20713;SDS011;10518;50.742;4.226;2023-12-20T09:33:17;15.80;;;2.73;;
20713;SDS011;10518;50.742;4.226;2023-12-20T09:35:43;12.47;;;2.47;;
20713;SDS011;10518;50.742;4.226;2023-12-20T09:38:09;14.20;;;2.27;;
20713;SDS011;10518;50.742;4.226;2023-12-20T09:40:34;9.73;;;2.27;;
20713;SDS011;10518;50.742;4.226;2023-12-20T09:43:04;11.93;;;2.47;;
20713;SDS011;10518;50.742;4.226;2023-12-20T09:45:36;18.07;;;2.60;;
20713;SDS011;10518;50.742;4.226;2023-12-20T09:48:02;10.17;;;3.00;;
20713;SDS011;10518;50.742;4.226;2023-12-20T09:50:30;10.93;;;3.63;;
20713;SDS011;10518;50.742;4.226;2023-12-20T09:52:57;14.13;;;2.60;;
20713;SDS011;10518;50.742;4.226;2023-12-20T09:55:24;12.40;;;2.90;;
20713;SDS011;10518;50.742;4.226;2023-12-20T09:57:50;17.23;;;2.73;;
20713;SDS011;10518;50.742;4.226;2023-12-20T10:00:16;11.20;;;2.87;;
20713;SDS011;10518;50.742;4.226;2023-12-20T10:02:45;12.33;;;3.40;;
20713;SDS011;10518;50.742;4.226;2023-12-20T10:05:20;14.10;;;3.40;;
20713;SDS011;10518;50.742;4.226;2023-12-20T10:07:55;13.97;;;2.87;;
20713;SDS011;10518;50.742;4.226;2023-12-20T10:10:21;15.30;;;2.93;;
20713;SDS011;10518;50.742;4.226;2023-12-20T10:13:06;18.93;;;3.00;;
20713;SDS011;10518;50.742;4.226;2023-12-20T10:15:33;15.30;;;2.50;;
20713;SDS011;10518;50.742;4.226;2023-12-20T10:18:00;14.93;;;2.87;;
20713;SDS011;10518;50.742;4.226;2023-12-20T10:20:26;12.33;;;2.60;;
20713;SDS011;10518;50.742;4.226;2023-12-20T10:22:54;12.20;;;2.53;;
20713;SDS011;10518;50.742;4.226;2023-12-20T10:25:20;13.73;;;2.33;;
20713;SDS011;10518;50.742;4.226;2023-12-20T10:27:46;13.43;;;2.80;;
20713;SDS011;10518;50.742;4.226;2023-12-20T10:30:12;9.07;;;2.40;;
20713;SDS011;10518;50.742;4.226;2023-12-20T10:32:39;16.03;;;2.50;;
20713;SDS011;10518;50.742;4.226;2023-12-20T10:35:05;8.43;;;2.60;;
20713;SDS011;10518;50.742;4.226;2023-12-20T10:37:34;5.90;;;2.60;;
20713;SDS011;10518;50.742;4.226;2023-12-20T10:40:01;15.17;;;2.70;;
20713;SDS011;10518;50.742;4.226;2023-12-20T10:42:29;9.20;;;2.60;;
20713;SDS011;10518;50.742;4.226;2023-12-20T10:44:55;13.57;;;2.70;;
20713;SDS011;10518;50.742;4.226;2023-12-20T10:47:24;9.83;;;3.07;;
20713;SDS011;10518;50.742;4.226;2023-12-20T10:49:50;14.60;;;2.83;;
20713;SDS011;10518;50.742;4.226;2023-12-20T10:52:17;14.53;;;2.73;;
20713;SDS011;10518;50.742;4.226;2023-12-20T10:54:44;15.47;;;2.50;;
20713;SDS011;10518;50.742;4.226;2023-12-20T10:57:09;13.23;;;2.43;;
20713;SDS011;10518;50.742;4.226;2023-12-20T10:59:36;11.20;;;2.90;;
20713;SDS011;10518;50.742;4.226;2023-12-20T11:02:03;18.07;;;2.37;;
20713;SDS011;10518;50.742;4.226;2023-12-20T11:04:42;15.53;;;2.60;;
20713;SDS011;10518;50.742;4.226;2023-12-20T11:07:17;10.53;;;2.70;;
20713;SDS011;10518;50.742;4.226;2023-12-20T11:10:10;10.37;;;2.33;;
20713;SDS011;10518;50.742;4.226;2023-12-20T11:12:52;16.90;;;2.80;;
20713;SDS011;10518;50.742;4.226;2023-12-20T11:15:21;6.80;;;2.43;;
20713;SDS011;10518;50.742;4.226;2023-12-20T11:17:54;11.90;;;2.50;;
20713;SDS011;10518;50.742;4.226;2023-12-20T11:20:22;12.63;;;2.60;;
20713;SDS011;10518;50.742;4.226;2023-12-20T11:23:04;10.90;;;2.37;;
20713;SDS011;10518;50.742;4.226;2023-12-20T11:25:35;11.00;;;2.47;;
20713;SDS011;10518;50.742;4.226;2023-12-20T11:28:12;13.23;;;3.03;;
20713;SDS011;10518;50.742;4.226;2023-12-20T11:30:57;13.67;;;2.80;;
20713;SDS011;10518;50.742;4.226;2023-12-20T11:33:38;11.87;;;2.97;;
20713;SDS011;10518;50.742;4.226;2023-12-20T11:36:12;13.13;;;2.67;;
20713;SDS011;10518;50.742;4.226;2023-12-20T11:38:49;19.03;;;3.03;;
20713;SDS011;10518;50.742;4.226;2023-12-20T11:41:22;6.73;;;2.30;;
20713;SDS011;10518;50.742;4.226;2023-12-20T11:43:52;10.00;;;2.30;;
20713;SDS011;10518;50.742;4.226;2023-12-20T11:46:19;11.00;;;2.57;;
20713;SDS011;10518;50.742;4.226;2023-12-20T11:48:45;16.40;;;3.70;;
20713;SDS011;10518;50.742;4.226;2023-12-20T11:51:12;22.53;;;2.70;;
20713;SDS011;10518;50.742;4.226;2023-12-20T11:53:38;10.70;;;2.20;;
20713;SDS011;10518;50.742;4.226;2023-12-20T11:56:05;10.07;;;2.20;;
20713;SDS011;10518;50.742;4.226;2023-12-20T11:58:31;12.97;;;2.67;;
20713;SDS011;10518;50.742;4.226;2023-12-20T12:00:57;18.53;;;2.87;;
20713;SDS011;10518;50.742;4.226;2023-12-20T12:03:23;14.20;;;2.70;;
20713;SDS011;10518;50.742;4.226;2023-12-20T12:05:49;10.33;;;3.17;;
20713;SDS011;10518;50.742;4.226;2023-12-20T12:08:15;13.23;;;3.03;;
20713;SDS011;10518;50.742;4.226;2023-12-20T12:10:42;10.30;;;2.00;;
20713;SDS011;10518;50.742;4.226;2023-12-20T12:13:08;13.07;;;2.73;;
20713;SDS011;10518;50.742;4.226;2023-12-20T12:15:35;10.70;;;2.53;;
20713;SDS011;10518;50.742;4.226;2023-12-20T12:18:01;14.47;;;2.80;;
20713;SDS011;10518;50.742;4.226;2023-12-20T12:20:27;13.67;;;2.07;;
20713;SDS011;10518;50.742;4.226;2023-12-20T12:25:25;10.53;;;2.23;;
20713;SDS011;10518;50.742;4.226;2023-12-20T12:27:50;10.07;;;2.73;;
20713;SDS011;10518;50.742;4.226;2023-12-20T12:30:16;7.50;;;2.30;;
20713;SDS011;10518;50.742;4.226;2023-12-20T12:32:43;13.87;;;2.13;;
20713;SDS011;10518;50.742;4.226;2023-12-20T12:35:09;18.20;;;2.30;;
20713;SDS011;10518;50.742;4.226;2023-12-20T12:37:35;11.87;;;2.23;;
20713;SDS011;10518;50.742;4.226;2023-12-20T12:40:05;10.53;;;2.33;;
20713;SDS011;10518;50.742;4.226;2023-12-20T12:42:31;10.13;;;2.10;;
20713;SDS011;10518;50.742;4.226;2023-12-20T12:44:57;9.80;;;2.10;;
20713;SDS011;10518;50.742;4.226;2023-12-20T12:47:22;14.67;;;2.33;;
20713;SDS011;10518;50.742;4.226;2023-12-20T12:49:49;7.57;;;1.97;;
20713;SDS011;10518;50.742;4.226;2023-12-20T12:52:16;12.73;;;2.50;;
20713;SDS011;10518;50.742;4.226;2023-12-20T12:54:42;10.30;;;2.33;;
20713;SDS011;10518;50.742;4.226;2023-12-20T12:57:09;16.67;;;2.77;;
20713;SDS011;10518;50.742;4.226;2023-12-20T12:59:36;9.87;;;2.20;;
20713;SDS011;10518;50.742;4.226;2023-12-20T13:02:01;16.67;;;2.50;;
20713;SDS011;10518;50.742;4.226;2023-12-20T13:04:27;14.13;;;2.33;;
20713;SDS011;10518;50.742;4.226;2023-12-20T13:06:52;9.10;;;2.53;;
20713;SDS011;10518;50.742;4.226;2023-12-20T13:09:18;9.10;;;2.20;;
20713;SDS011;10518;50.742;4.226;2023-12-20T13:11:44;7.27;;;2.53;;
20713;SDS011;10518;50.742;4.226;2023-12-20T13:14:10;17.93;;;2.60;;
20713;SDS011;10518;50.742;4.226;2023-12-20T13:16:40;14.50;;;2.40;;
20713;SDS011;10518;50.742;4.226;2023-12-20T13:19:06;13.23;;;2.57;;
20713;SDS011;10518;50.742;4.226;2023-12-20T13:21:32;11.50;;;2.23;;
20713;SDS011;10518;50.742;4.226;2023-12-20T13:23:57;11.40;;;2.37;;
20713;SDS011;10518;50.742;4.226;2023-12-20T13:26:23;7.97;;;2.07;;
20713;SDS011;10518;50.742;4.226;2023-12-20T13:28:48;13.80;;;2.27;;
20713;SDS011;10518;50.742;4.226;2023-12-20T13:31:14;10.70;;;2.40;;
20713;SDS011;10518;50.742;4.226;2023-12-20T13:33:40;16.10;;;2.70;;
20713;SDS011;10518;50.742;4.226;2023-12-20T13:36:05;16.83;;;2.73;;
20713;SDS011;10518;50.742;4.226;2023-12-20T13:38:31;8.10;;;2.40;;
20713;SDS011;10518;50.742;4.226;2023-12-20T13:40:57;10.77;;;2.23;;
20713;SDS011;10518;50.742;4.226;2023-12-20T13:43:23;11.57;;;2.43;;
20713;SDS011;10518;50.742;4.226;2023-12-20T13:45:49;14.10;;;2.67;;
20713;SDS011;10518;50.742;4.226;2023-12-20T13:48:15;16.87;;;2.13;;
20713;SDS011;10518;50.742;4.226;2023-12-20T13:50:41;12.70;;;2.63;;
20713;SDS011;10518;50.742;4.226;2023-12-20T13:53:07;15.97;;;2.30;;
20713;SDS011;10518;50.742;4.226;2023-12-20T13:55:32;14.80;;;3.10;;
20713;SDS011;10518;50.742;4.226;2023-12-20T13:57:58;9.53;;;2.10;;
20713;SDS011;10518;50.742;4.226;2023-12-20T14:00:23;11.13;;;2.03;;
20713;SDS011;10518;50.742;4.226;2023-12-20T14:02:49;9.00;;;2.77;;
20713;SDS011;10518;50.742;4.226;2023-12-20T14:05:15;16.03;;;2.63;;
20713;SDS011;10518;50.742;4.226;2023-12-20T14:07:42;11.27;;;3.03;;
20713;SDS011;10518;50.742;4.226;2023-12-20T14:10:11;13.10;;;3.00;;
20713;SDS011;10518;50.742;4.226;2023-12-20T14:12:38;9.23;;;2.27;;
20713;SDS011;10518;50.742;4.226;2023-12-20T14:15:04;14.77;;;2.30;;
20713;SDS011;10518;50.742;4.226;2023-12-20T14:17:36;12.33;;;2.50;;
20713;SDS011;10518;50.742;4.226;2023-12-20T14:20:02;11.07;;;2.30;;
20713;SDS011;10518;50.742;4.226;2023-12-20T14:22:29;13.07;;;2.87;;
20713;SDS011;10518;50.742;4.226;2023-12-20T14:24:55;7.87;;;1.77;;
20713;SDS011;10518;50.742;4.226;2023-12-20T14:27:22;11.73;;;2.43;;
20713;SDS011;10518;50.742;4.226;2023-12-20T14:29:49;8.30;;;2.10;;
20713;SDS011;10518;50.742;4.226;2023-12-20T14:32:15;17.70;;;2.50;;
20713;SDS011;10518;50.742;4.226;2023-12-20T14:34:41;11.83;;;3.07;;
20713;SDS011;10518;50.742;4.226;2023-12-20T14:37:06;12.03;;;2.43;;